createdAt,value
2022-08-07T00:01:44.272Z,3.03
2022-08-07T00:04:24.445Z,2.58
2022-08-07T00:06:55.023Z,2.65
2022-08-07T00:09:35.488Z,2.72
2022-08-07T00:12:06.239Z,2.80
2022-08-07T00:14:40.540Z,2.83
2022-08-07T00:17:14.400Z,3.28
2022-08-07T00:20:01.473Z,2.70
2022-08-07T00:22:35.526Z,3.10
2022-08-07T00:25:15.817Z,3.20
2022-08-07T00:27:52.411Z,3.22
2022-08-07T00:30:28.615Z,3.35
2022-08-07T00:33:00.311Z,3.17
2022-08-07T00:35:32.129Z,3.35
2022-08-07T00:38:05.509Z,3.72
2022-08-07T00:40:40.129Z,3.28
2022-08-07T00:44:02.096Z,3.65
2022-08-07T00:46:07.936Z,3.38
2022-08-07T00:48:42.237Z,3.42
2022-08-07T00:51:13.485Z,3.13
2022-08-07T00:53:50.697Z,3.15
2022-08-07T00:56:30.155Z,3.63
2022-08-07T00:59:07.063Z,3.00
2022-08-07T01:01:44.201Z,3.67
2022-08-07T01:04:24.529Z,3.40
2022-08-07T01:06:56.268Z,3.72
2022-08-07T01:10:04.798Z,3.90
2022-08-07T01:12:29.020Z,3.38
2022-08-07T01:15:03.996Z,3.72
2022-08-07T01:20:17.186Z,3.70
2022-08-07T01:23:08.936Z,3.47
2022-08-07T01:25:55.522Z,4.53
2022-08-07T01:28:27.436Z,3.88
2022-08-07T01:31:02.859Z,3.90
2022-08-07T01:33:56.039Z,4.28
2022-08-07T01:36:33.381Z,3.65
2022-08-07T01:39:10.684Z,4.30
2022-08-07T01:42:07.088Z,4.22
2022-08-07T01:44:40.090Z,4.85
2022-08-07T01:48:16.454Z,4.22
2022-08-07T01:50:03.939Z,4.35
2022-08-07T01:52:37.408Z,4.22
2022-08-07T01:55:22.238Z,4.32
2022-08-07T01:58:27.429Z,4.45
2022-08-07T02:01:10.402Z,4.18
2022-08-07T02:04:01.998Z,4.43
2022-08-07T02:06:37.828Z,4.75
2022-08-07T02:09:52.402Z,4.22
2022-08-07T02:12:29.408Z,4.60
2022-08-07T02:15:06.930Z,4.45
2022-08-07T02:17:49.581Z,4.40
2022-08-07T02:20:23.746Z,5.85
2022-08-07T02:23:01.920Z,5.05
2022-08-07T02:26:26.762Z,4.40
2022-08-07T02:28:34.731Z,4.70
2022-08-07T02:31:28.301Z,5.18
2022-08-07T02:34:11.423Z,4.80
2022-08-07T02:36:54.464Z,4.15
2022-08-07T02:39:43.098Z,4.13
2022-08-07T02:42:21.959Z,4.15
2022-08-07T02:45:00.819Z,4.90
2022-08-07T02:47:48.941Z,4.75
2022-08-07T02:50:21.940Z,4.30
2022-08-07T02:53:03.406Z,4.30
2022-08-07T02:56:02.566Z,4.40
2022-08-07T02:58:33.493Z,4.78
2022-08-07T03:01:15.958Z,5.47
2022-08-07T03:03:51.073Z,4.78
2022-08-07T03:06:33.217Z,4.57
2022-08-07T03:09:07.682Z,4.85
2022-08-07T03:11:51.789Z,4.45
2022-08-07T03:14:23.979Z,4.10
2022-08-07T03:16:58.784Z,4.82
2022-08-07T03:19:37.291Z,4.68
2022-08-07T03:22:19.040Z,4.78
2022-08-07T03:24:51.216Z,4.80
2022-08-07T03:27:30.413Z,4.05
2022-08-07T03:30:16.770Z,4.50
2022-08-07T03:33:01.009Z,4.13
2022-08-07T03:35:43.384Z,4.20
2022-08-07T03:38:16.624Z,4.53
2022-08-07T03:40:57.298Z,4.65
2022-08-07T03:43:32.985Z,4.65
2022-08-07T03:46:10.380Z,4.18
2022-08-07T03:49:02.558Z,3.83
2022-08-07T03:51:47.003Z,4.15
2022-08-07T03:54:36.255Z,4.65
2022-08-07T03:58:34.994Z,3.92
2022-08-07T04:00:04.887Z,4.03
2022-08-07T04:02:58.725Z,3.55
2022-08-07T04:05:40.754Z,4.22
2022-08-07T04:08:21.130Z,4.10
2022-08-07T04:12:15.645Z,4.18
2022-08-07T04:14:10.407Z,3.63
2022-08-07T04:16:43.086Z,3.97
2022-08-07T04:19:51.065Z,3.95
2022-08-07T04:22:23.145Z,3.58
2022-08-07T04:24:55.957Z,3.90
2022-08-07T04:30:21.369Z,3.60
2022-08-07T04:33:10.162Z,4.05
2022-08-07T04:35:50.404Z,3.70
2022-08-07T04:38:28.809Z,4.30
2022-08-07T04:41:00.692Z,3.85
2022-08-07T04:44:12.743Z,4.32
2022-08-07T04:46:59.238Z,3.90
2022-08-07T04:49:47.379Z,4.55
2022-08-07T04:52:50.978Z,4.18
2022-08-07T04:58:07.541Z,4.05
2022-08-07T04:59:17.419Z,3.78
2022-08-07T05:01:34.953Z,3.83
2022-08-07T05:04:17.847Z,4.05
2022-08-07T05:06:59.965Z,4.90
2022-08-07T05:09:47.065Z,4.40
2022-08-07T05:12:33.167Z,4.05
2022-08-07T05:15:21.574Z,3.90
2022-08-07T05:18:02.971Z,4.75
2022-08-07T05:20:43.789Z,3.92
2022-08-07T05:23:19.872Z,4.65
2022-08-07T05:26:13.092Z,4.18
2022-08-07T05:28:51.486Z,4.85
2022-08-07T05:31:35.094Z,4.22
2022-08-07T05:34:12.006Z,4.20
2022-08-07T05:36:49.138Z,4.47
2022-08-07T05:40:06.900Z,3.92
2022-08-07T05:42:34.572Z,4.03
2022-08-07T05:45:47.104Z,4.57
2022-08-07T05:48:09.156Z,5.00
2022-08-07T05:54:09.679Z,4.60
2022-08-07T05:56:59.723Z,4.72
2022-08-07T05:59:46.624Z,4.57
2022-08-07T06:02:29.624Z,4.82
2022-08-07T06:05:15.734Z,4.85
2022-08-07T06:08:13.017Z,4.75
2022-08-07T06:10:54.796Z,4.93
2022-08-07T06:14:10.750Z,4.57
2022-08-07T06:16:19.390Z,4.05
2022-08-07T06:18:57.458Z,4.90
2022-08-07T06:22:14.940Z,3.90
2022-08-07T06:24:38.313Z,3.75
2022-08-07T06:27:10.244Z,4.28
2022-08-07T06:29:41.914Z,4.28
2022-08-07T06:32:13.258Z,3.50
2022-08-07T06:34:48.658Z,3.90
2022-08-07T06:37:20.422Z,3.67
2022-08-07T06:40:13.380Z,4.30
2022-08-07T06:42:52.239Z,3.97
2022-08-07T06:45:44.187Z,4.20
2022-08-07T06:48:16.218Z,3.53
2022-08-07T06:51:08.027Z,3.67
2022-08-07T06:54:11.661Z,4.07
2022-08-07T06:56:49.468Z,4.97
2022-08-07T07:00:12.929Z,3.70
2022-08-07T07:02:53.556Z,4.50
2022-08-07T07:06:03.199Z,4.15
2022-08-07T07:08:18.676Z,4.03
2022-08-07T07:10:59.296Z,4.95
2022-08-07T07:13:55.959Z,4.15
2022-08-07T07:16:34.086Z,4.07
2022-08-07T07:19:56.263Z,3.72
2022-08-07T07:22:33.956Z,3.87
2022-08-07T07:26:31.084Z,3.30
2022-08-07T07:28:03.147Z,3.60
2022-08-07T07:30:41.786Z,3.50
2022-08-07T07:33:15.667Z,3.45
2022-08-07T07:36:04.549Z,3.45
2022-08-07T07:38:36.998Z,3.13
2022-08-07T07:41:15.050Z,2.72
2022-08-07T07:44:17.458Z,3.22
2022-08-07T07:50:32.720Z,3.63
2022-08-07T07:52:23.963Z,2.92
2022-08-07T07:54:57.161Z,3.38
2022-08-07T07:57:50.211Z,3.60
2022-08-07T08:00:31.568Z,3.10
2022-08-07T08:03:09.477Z,3.60
2022-08-07T08:05:54.253Z,4.00
2022-08-07T08:08:34.508Z,3.22
2022-08-07T08:11:07.959Z,3.60
2022-08-07T08:16:31.221Z,3.65
2022-08-07T08:19:17.416Z,4.60
2022-08-07T08:24:57.146Z,3.40
2022-08-07T08:27:38.393Z,4.35
2022-08-07T08:30:19.610Z,4.00
2022-08-07T08:32:55.338Z,4.00
2022-08-07T08:35:39.594Z,4.43
2022-08-07T08:38:20.156Z,3.95
2022-08-07T08:40:57.663Z,3.80
2022-08-07T08:43:42.060Z,3.65
2022-08-07T08:46:22.806Z,4.20
2022-08-07T08:49:02.712Z,4.18
2022-08-07T08:52:12.683Z,4.47
2022-08-07T08:54:37.063Z,4.05
2022-08-07T08:57:16.565Z,3.85
2022-08-07T08:59:53.772Z,3.88
2022-08-07T09:02:41.906Z,3.67
2022-08-07T09:05:44.066Z,4.20
2022-08-07T09:08:32.905Z,3.40
2022-08-07T09:11:24.780Z,3.78
2022-08-07T09:14:14.580Z,3.63
2022-08-07T09:17:05.375Z,3.92
2022-08-07T09:19:52.879Z,3.60
2022-08-07T09:24:31.600Z,3.35
2022-08-07T09:25:54.480Z,4.15
2022-08-07T09:30:06.431Z,3.28
2022-08-07T09:31:38.766Z,3.58
2022-08-07T09:34:18.346Z,3.40
2022-08-07T09:37:03.866Z,3.30
2022-08-07T09:39:53.833Z,3.10
2022-08-07T09:42:40.987Z,3.90
2022-08-07T09:47:25.786Z,3.08
2022-08-07T09:48:30.063Z,3.60
2022-08-07T09:52:10.322Z,3.33
2022-08-07T09:54:27.105Z,3.97
2022-08-07T09:57:25.231Z,3.75
2022-08-07T10:00:14.509Z,3.80
2022-08-07T10:04:06.048Z,2.65
2022-08-07T10:06:24.717Z,3.10
2022-08-07T10:09:17.088Z,3.15
2022-08-07T10:12:21.369Z,3.10
2022-08-07T10:15:15.468Z,3.45
2022-08-07T10:18:11.986Z,3.30
2022-08-07T10:20:59.573Z,3.78
2022-08-07T10:24:04.803Z,3.30
2022-08-07T10:26:53.739Z,2.92
2022-08-07T10:29:56.184Z,2.83
2022-08-07T10:32:53.006Z,3.25
2022-08-07T10:35:53.466Z,3.00
2022-08-07T10:38:48.755Z,2.72
2022-08-07T10:41:47.027Z,3.45
2022-08-07T10:44:37.431Z,2.70
2022-08-07T10:47:48.811Z,2.30
2022-08-07T10:50:26.349Z,2.90
2022-08-07T10:53:08.351Z,3.40
2022-08-07T10:55:47.311Z,2.97
2022-08-07T10:58:40.382Z,3.00
2022-08-07T11:01:35.856Z,2.45
2022-08-07T11:04:34.843Z,2.83
2022-08-07T11:07:56.817Z,2.50
2022-08-07T11:10:15.678Z,2.63
2022-08-07T11:13:01.656Z,2.72
2022-08-07T11:15:39.075Z,2.33
2022-08-07T11:18:17.975Z,2.67
2022-08-07T11:21:00.153Z,3.03
2022-08-07T11:23:39.360Z,2.58
2022-08-07T11:26:24.231Z,2.90
2022-08-07T11:29:01.834Z,2.78
2022-08-07T11:31:45.341Z,2.30
2022-08-07T11:34:24.230Z,2.75
2022-08-07T11:37:20.198Z,2.65
2022-08-07T11:40:10.434Z,3.25
2022-08-07T11:43:02.039Z,3.13
2022-08-07T11:45:53.177Z,2.60
2022-08-07T11:49:27.692Z,2.95
2022-08-07T11:51:59.027Z,3.65
2022-08-07T11:54:55.682Z,2.80
2022-08-07T11:57:59.647Z,2.60
2022-08-07T12:00:37.678Z,2.55
2022-08-07T12:03:59.033Z,2.50
2022-08-07T12:06:51.618Z,2.50
2022-08-07T12:09:37.033Z,2.45
2022-08-07T12:12:13.722Z,2.63
2022-08-07T12:14:56.009Z,2.03
2022-08-07T12:17:58.594Z,1.90
2022-08-07T12:20:33.780Z,2.25
2022-08-07T12:24:07.759Z,1.80
2022-08-07T12:26:35.415Z,2.58
2022-08-07T12:29:37.561Z,2.35
2022-08-07T12:32:19.107Z,2.47
2022-08-07T12:34:56.378Z,2.30
2022-08-07T12:38:09.681Z,1.80
2022-08-07T12:44:02.136Z,2.03
2022-08-07T12:46:32.768Z,2.10
2022-08-07T12:49:25.426Z,2.63
2022-08-07T12:52:14.202Z,2.63
2022-08-07T12:55:03.533Z,2.53
2022-08-07T12:58:01.118Z,2.00
2022-08-07T13:00:49.707Z,2.72
2022-08-07T13:04:09.741Z,3.30
2022-08-07T13:08:11.500Z,2.50
2022-08-07T13:10:38.171Z,2.97
2022-08-07T13:13:48.198Z,2.40
2022-08-07T13:16:29.989Z,3.53
2022-08-07T13:19:18.204Z,2.90
2022-08-07T13:22:19.439Z,2.90
2022-08-07T13:25:00.120Z,2.45
2022-08-07T13:28:11.390Z,3.05
2022-08-07T13:30:44.165Z,2.45
2022-08-07T13:34:31.001Z,2.70
2022-08-07T13:36:26.197Z,2.53
2022-08-07T13:39:12.707Z,2.65
2022-08-07T13:41:55.121Z,2.45
2022-08-07T13:44:34.484Z,2.38
2022-08-07T13:47:10.249Z,2.42
2022-08-07T13:50:33.009Z,2.60
2022-08-07T13:55:30.848Z,2.58
2022-08-07T13:58:28.174Z,2.15
2022-08-07T14:01:09.063Z,2.85
2022-08-07T14:04:06.836Z,2.75
2022-08-07T14:06:35.895Z,2.60
2022-08-07T14:09:08.509Z,2.33
2022-08-07T14:11:53.640Z,2.20
2022-08-07T14:14:41.790Z,2.85
2022-08-07T14:18:12.857Z,2.22
2022-08-07T14:20:43.114Z,2.30
2022-08-07T14:23:09.127Z,3.10
2022-08-07T14:25:47.895Z,2.33
2022-08-07T14:28:55.946Z,2.35
2022-08-07T14:31:16.554Z,2.70
2022-08-07T14:33:49.370Z,2.85
2022-08-07T14:36:20.241Z,2.40
2022-08-07T14:38:52.951Z,2.97
2022-08-07T14:41:34.094Z,2.88
2022-08-07T14:44:26.150Z,2.22
2022-08-07T14:52:50.313Z,2.72
2022-08-07T14:55:22.908Z,2.63
2022-08-07T14:58:02.989Z,2.45
2022-08-07T15:00:36.629Z,3.15
2022-08-07T15:03:51.376Z,3.30
2022-08-07T15:06:26.102Z,2.78
2022-08-07T15:08:57.643Z,2.92
2022-08-07T15:17:18.517Z,2.83
2022-08-07T15:20:32.872Z,3.47
2022-08-07T15:22:56.192Z,3.33
2022-08-07T15:25:36.872Z,3.25
2022-08-07T15:28:38.639Z,3.08
2022-08-07T15:31:12.714Z,3.30
2022-08-07T15:34:14.826Z,3.45
2022-08-07T15:37:03.745Z,3.47
2022-08-07T15:39:57.609Z,3.33
2022-08-07T15:45:55.077Z,3.10
2022-08-07T15:48:32.908Z,3.20
2022-08-07T15:51:13.540Z,3.63
2022-08-07T15:53:53.635Z,3.30
2022-08-07T15:56:27.572Z,3.53
2022-08-07T15:59:05.905Z,3.40
2022-08-07T16:01:42.431Z,3.53
2022-08-07T16:04:15.828Z,3.08
2022-08-07T16:08:28.485Z,3.28
2022-08-07T16:10:09.606Z,3.53
2022-08-07T16:13:05.516Z,3.05
2022-08-07T16:15:59.055Z,3.17
2022-08-07T16:18:56.167Z,3.55
2022-08-07T16:22:03.242Z,3.65
2022-08-07T16:24:36.426Z,3.17
2022-08-07T16:27:22.065Z,3.28
2022-08-07T16:30:29.606Z,4.00
2022-08-07T16:34:02.171Z,3.10
2022-08-07T16:36:20.659Z,3.15
2022-08-07T16:39:10.201Z,3.45
2022-08-07T16:42:05.303Z,3.92
2022-08-07T16:45:14.926Z,3.13
2022-08-07T16:48:34.502Z,2.90
2022-08-07T16:52:01.823Z,3.40
2022-08-07T16:54:39.826Z,2.97
2022-08-07T16:58:01.788Z,3.40
2022-08-07T17:00:35.850Z,3.60
2022-08-07T17:03:19.788Z,3.78
2022-08-07T17:10:05.231Z,3.42
2022-08-07T17:12:45.365Z,3.22
2022-08-07T17:15:21.039Z,3.53
2022-08-07T17:18:14.183Z,3.97
2022-08-07T17:20:46.668Z,3.03
2022-08-07T17:23:35.142Z,3.53
2022-08-07T17:26:23.298Z,3.65
2022-08-07T17:29:19.085Z,3.53
2022-08-07T17:32:31.087Z,3.55
2022-08-07T17:35:50.373Z,3.53
2022-08-07T17:38:32.976Z,3.55
2022-08-07T17:42:01.077Z,3.63
2022-08-07T17:44:08.271Z,3.35
2022-08-07T17:46:53.493Z,3.63
2022-08-07T17:49:30.072Z,4.47
2022-08-07T17:52:13.173Z,3.70
2022-08-07T17:57:58.510Z,3.75
2022-08-07T18:00:34.086Z,4.70
2022-08-07T18:03:25.517Z,9.43
2022-08-07T18:06:06.304Z,7.70
2022-08-07T18:09:01.863Z,6.80
2022-08-07T18:12:07.375Z,6.70
2022-08-07T18:14:37.559Z,5.72
2022-08-07T18:18:47.072Z,5.45
2022-08-07T18:21:08.597Z,5.93
2022-08-07T18:23:42.714Z,4.50
2022-08-07T18:26:16.922Z,5.32
2022-08-07T18:30:04.362Z,5.82
2022-08-07T18:32:13.540Z,6.00
2022-08-07T18:35:11.199Z,5.47
2022-08-07T18:38:57.158Z,5.28
2022-08-07T18:41:09.963Z,5.70
2022-08-07T18:44:12.876Z,6.15
2022-08-07T18:47:00.323Z,5.50
2022-08-07T18:50:19.276Z,6.35
2022-08-07T18:53:04.528Z,6.00
2022-08-07T18:55:57.069Z,5.53
2022-08-07T18:58:51.842Z,6.03
2022-08-07T19:02:18.957Z,5.68
2022-08-07T19:05:15.609Z,5.07
2022-08-07T19:08:05.789Z,5.32
2022-08-07T19:10:51.585Z,5.35
2022-08-07T19:13:29.612Z,6.05
2022-08-07T19:16:43.014Z,5.65
2022-08-07T19:19:05.639Z,5.72
2022-08-07T19:21:55.985Z,6.07
2022-08-07T19:28:57.906Z,6.75
2022-08-07T19:30:57.907Z,5.45
2022-08-07T19:32:59.688Z,4.30
2022-08-07T19:35:35.662Z,4.00
2022-08-07T19:38:17.443Z,3.67
2022-08-07T19:40:53.481Z,3.13
2022-08-07T19:43:48.775Z,2.97
2022-08-07T19:46:20.826Z,3.33
2022-08-07T19:49:10.175Z,3.78
2022-08-07T19:51:53.318Z,3.95
2022-08-07T19:54:44.897Z,3.42
2022-08-07T19:58:04.470Z,3.78
2022-08-07T20:00:28.991Z,3.50
2022-08-07T20:03:05.457Z,3.30
2022-08-07T20:06:04.027Z,3.97
2022-08-07T20:08:50.404Z,2.60
2022-08-07T20:12:00.851Z,3.53
2022-08-07T20:14:31.393Z,2.38
2022-08-07T20:17:07.152Z,3.00
2022-08-07T20:19:48.278Z,3.00
2022-08-07T20:22:36.138Z,2.65
2022-08-07T20:25:12.827Z,2.65
2022-08-07T20:27:58.500Z,2.53
2022-08-07T20:33:24.312Z,1.50
2022-08-07T20:36:03.740Z,1.63
2022-08-07T20:38:35.920Z,1.88
2022-08-07T20:41:34.010Z,1.92
2022-08-07T20:44:13.059Z,1.77
2022-08-07T20:46:45.441Z,2.00
2022-08-07T20:49:59.905Z,2.07
2022-08-07T20:52:24.424Z,2.25
2022-08-07T20:55:00.164Z,2.00
2022-08-07T20:57:47.728Z,2.10
2022-08-07T21:00:42.726Z,1.88
2022-08-07T21:03:19.259Z,1.83
2022-08-07T21:06:03.777Z,2.03
2022-08-07T21:09:01.841Z,1.80
2022-08-07T21:11:40.156Z,2.22
2022-08-07T21:14:33.212Z,2.22
2022-08-07T21:18:06.245Z,2.00
2022-08-07T21:20:04.766Z,2.63
2022-08-07T21:22:44.847Z,2.10
2022-08-07T21:25:23.190Z,2.08
2022-08-07T21:28:18.969Z,1.77
2022-08-07T21:31:49.326Z,2.40
2022-08-07T21:34:19.385Z,2.30
2022-08-07T21:37:02.479Z,1.90
2022-08-07T21:46:08.084Z,2.00
2022-08-07T21:48:28.544Z,1.63
2022-08-07T21:51:20.042Z,1.80
2022-08-07T21:53:59.394Z,1.83
2022-08-07T21:56:47.924Z,1.80
2022-08-07T22:00:05.187Z,1.80
2022-08-07T22:02:37.424Z,1.75
2022-08-07T22:05:44.028Z,1.73
2022-08-07T22:08:10.277Z,1.55
2022-08-07T22:10:42.729Z,1.80
2022-08-07T22:13:23.914Z,1.48
2022-08-07T22:16:43.091Z,1.90
2022-08-07T22:19:05.435Z,1.83
2022-08-07T22:22:05.177Z,1.75
2022-08-07T22:24:40.528Z,1.48
2022-08-07T22:27:33.875Z,1.80
2022-08-07T22:30:19.174Z,1.60
2022-08-07T22:33:06.947Z,1.35
2022-08-07T22:35:45.024Z,1.75
2022-08-07T22:38:38.856Z,1.83
2022-08-07T22:41:20.102Z,1.10
2022-08-07T22:43:56.194Z,1.52
2022-08-07T22:47:08.589Z,1.58
2022-08-07T22:49:58.973Z,1.42
2022-08-07T22:52:59.084Z,1.40
2022-08-07T22:55:56.974Z,1.45
2022-08-07T22:59:08.259Z,1.65
2022-08-07T23:02:03.663Z,1.00
2022-08-07T23:06:10.342Z,1.40
2022-08-07T23:08:22.566Z,1.58
2022-08-07T23:11:13.169Z,1.80
2022-08-07T23:14:10.552Z,1.38
2022-08-07T23:17:01.756Z,1.55
2022-08-07T23:19:57.952Z,1.48
2022-08-07T23:22:46.978Z,1.20
2022-08-07T23:25:35.503Z,1.65
2022-08-07T23:28:29.000Z,1.40
2022-08-07T23:31:42.988Z,1.30
2022-08-07T23:34:38.229Z,1.20
2022-08-07T23:37:38.080Z,1.48
2022-08-07T23:40:37.570Z,1.42
2022-08-07T23:43:38.084Z,1.48
2022-08-07T23:46:29.693Z,1.42
2022-08-07T23:49:50.023Z,1.27
2022-08-07T23:53:06.211Z,1.13
2022-08-07T23:55:53.073Z,1.35
2022-08-07T23:58:27.138Z,1.50
